sensor_id;sensor_type;location;lat;lon;timestamp;temperature;humidity
2625;DHT22;1322;53.256;10.386;2022-09-12T16:55:09;22.60;99.90
2625;DHT22;1322;53.256;10.386;2022-09-12T16:57:35;22.60;99.90
2625;DHT22;1322;53.256;10.386;2022-09-12T17:00:01;22.40;99.90
2625;DHT22;1322;53.256;10.386;2022-09-12T17:02:26;22.50;99.90
2625;DHT22;1322;53.256;10.386;2022-09-12T17:04:52;22.40;99.90
2625;DHT22;1322;53.256;10.386;2022-09-12T17:07:17;22.40;99.90
2625;DHT22;1322;53.256;10.386;2022-09-12T17:09:43;22.40;99.90
2625;DHT22;1322;53.256;10.386;2022-09-12T17:12:11;22.30;99.90
2625;DHT22;1322;53.256;10.386;2022-09-12T17:14:36;22.30;99.90
2625;DHT22;1322;53.256;10.386;2022-09-12T17:17:02;22.20;99.90
2625;DHT22;1322;53.256;10.386;2022-09-12T17:19:27;22.20;99.90
2625;DHT22;1322;53.256;10.386;2022-09-12T17:21:55;22.20;99.90
2625;DHT22;1322;53.256;10.386;2022-09-12T17:24:21;22.10;99.90
2625;DHT22;1322;53.256;10.386;2022-09-12T17:26:48;22.10;99.90
2625;DHT22;1322;53.256;10.386;2022-09-12T17:29:14;22.10;99.90
2625;DHT22;1322;53.256;10.386;2022-09-12T17:31:41;22.00;99.90
2625;DHT22;1322;53.256;10.386;2022-09-12T17:34:07;21.90;99.90
2625;DHT22;1322;53.256;10.386;2022-09-12T17:36:33;21.90;99.90
2625;DHT22;1322;53.256;10.386;2022-09-12T17:39:00;21.80;99.90
2625;DHT22;1322;53.256;10.386;2022-09-12T17:41:27;21.80;99.90
2625;DHT22;1322;53.256;10.386;2022-09-12T17:43:56;21.80;99.90
2625;DHT22;1322;53.256;10.386;2022-09-12T17:46:34;21.70;99.90
2625;DHT22;1322;53.256;10.386;2022-09-12T17:49:00;21.60;99.90
2625;DHT22;1322;53.256;10.386;2022-09-12T17:51:27;21.60;99.90
2625;DHT22;1322;53.256;10.386;2022-09-12T17:53:59;21.50;99.90
2625;DHT22;1322;53.256;10.386;2022-09-12T17:56:29;21.50;99.90
2625;DHT22;1322;53.256;10.386;2022-09-12T17:58:56;21.40;99.90
2625;DHT22;1322;53.256;10.386;2022-09-12T18:01:22;21.10;99.90
2625;DHT22;1322;53.256;10.386;2022-09-12T18:04:20;21.30;99.90
2625;DHT22;1322;53.256;10.386;2022-09-12T18:06:46;21.20;99.90
2625;DHT22;1322;53.256;10.386;2022-09-12T18:09:17;21.20;99.90
2625;DHT22;1322;53.256;10.386;2022-09-12T18:11:44;21.10;99.90
2625;DHT22;1322;53.256;10.386;2022-09-12T18:14:10;21.00;99.90
2625;DHT22;1322;53.256;10.386;2022-09-12T18:16:36;21.00;99.90
2625;DHT22;1322;53.256;10.386;2022-09-12T18:19:02;20.90;99.90
2625;DHT22;1322;53.256;10.386;2022-09-12T18:21:28;20.90;99.90
2625;DHT22;1322;53.256;10.386;2022-09-12T18:23:55;20.80;99.90
2625;DHT22;1322;53.256;10.386;2022-09-12T18:26:23;20.90;99.90
2625;DHT22;1322;53.256;10.386;2022-09-12T18:28:49;20.90;99.90
2625;DHT22;1322;53.256;10.386;2022-09-12T18:31:17;20.90;99.90
2625;DHT22;1322;53.256;10.386;2022-09-12T18:33:43;20.90;99.90
2625;DHT22;1322;53.256;10.386;2022-09-12T18:36:10;20.90;99.90
2625;DHT22;1322;53.256;10.386;2022-09-12T18:38:37;20.90;99.90
2625;DHT22;1322;53.256;10.386;2022-09-12T18:41:08;20.90;99.90
2625;DHT22;1322;53.256;10.386;2022-09-12T18:43:34;20.90;99.90
2625;DHT22;1322;53.256;10.386;2022-09-12T18:46:11;20.90;99.90
2625;DHT22;1322;53.256;10.386;2022-09-12T18:48:37;20.80;99.90
2625;DHT22;1322;53.256;10.386;2022-09-12T18:51:26;20.80;99.90
2625;DHT22;1322;53.256;10.386;2022-09-12T18:53:56;20.70;99.90
2625;DHT22;1322;53.256;10.386;2022-09-12T18:56:24;20.60;99.90
2625;DHT22;1322;53.256;10.386;2022-09-12T18:58:53;20.60;99.90
2625;DHT22;1322;53.256;10.386;2022-09-12T19:01:25;20.60;99.90
2625;DHT22;1322;53.256;10.386;2022-09-12T19:03:51;20.50;99.90
2625;DHT22;1322;53.256;10.386;2022-09-12T19:06:22;21.30;99.90
2625;DHT22;1322;53.256;10.386;2022-09-12T19:08:49;20.40;99.90
2625;DHT22;1322;53.256;10.386;2022-09-12T19:11:16;20.30;99.90
2625;DHT22;1322;53.256;10.386;2022-09-12T19:13:44;20.20;99.90
2625;DHT22;1322;53.256;10.386;2022-09-12T19:16:12;20.20;99.90
2625;DHT22;1322;53.256;10.386;2022-09-12T19:18:39;20.20;99.90
2625;DHT22;1322;53.256;10.386;2022-09-12T19:21:06;20.10;99.90
2625;DHT22;1322;53.256;10.386;2022-09-12T19:23:34;20.10;99.90
2625;DHT22;1322;53.256;10.386;2022-09-12T19:26:05;20.10;99.90
2625;DHT22;1322;53.256;10.386;2022-09-12T19:28:31;20.10;99.90
2625;DHT22;1322;53.256;10.386;2022-09-12T19:30:56;20.10;99.90
2625;DHT22;1322;53.256;10.386;2022-09-12T19:33:22;20.00;99.90
2625;DHT22;1322;53.256;10.386;2022-09-12T19:35:49;20.00;99.90
2625;DHT22;1322;53.256;10.386;2022-09-12T19:38:15;20.00;99.90
2625;DHT22;1322;53.256;10.386;2022-09-12T19:40:41;19.90;99.90
2625;DHT22;1322;53.256;10.386;2022-09-12T19:43:07;19.80;99.90
2625;DHT22;1322;53.256;10.386;2022-09-12T19:45:33;19.80;99.90
2625;DHT22;1322;53.256;10.386;2022-09-12T19:47:59;19.70;99.90
2625;DHT22;1322;53.256;10.386;2022-09-12T19:50:25;19.70;99.90
2625;DHT22;1322;53.256;10.386;2022-09-12T19:52:51;19.70;99.90
2625;DHT22;1322;53.256;10.386;2022-09-12T19:55:16;19.70;99.90
2625;DHT22;1322;53.256;10.386;2022-09-12T19:57:42;19.60;99.90
2625;DHT22;1322;53.256;10.386;2022-09-12T20:00:08;19.60;99.90
2625;DHT22;1322;53.256;10.386;2022-09-12T20:02:34;19.50;99.90
2625;DHT22;1322;53.256;10.386;2022-09-12T20:05:00;19.40;99.90
2625;DHT22;1322;53.256;10.386;2022-09-12T20:07:25;19.40;99.90
2625;DHT22;1322;53.256;10.386;2022-09-12T20:09:51;19.40;99.90
2625;DHT22;1322;53.256;10.386;2022-09-12T20:12:17;19.40;99.90
2625;DHT22;1322;53.256;10.386;2022-09-12T20:14:42;19.30;99.90
2625;DHT22;1322;53.256;10.386;2022-09-12T20:17:08;19.30;99.90
2625;DHT22;1322;53.256;10.386;2022-09-12T20:19:34;19.30;99.90
2625;DHT22;1322;53.256;10.386;2022-09-12T20:22:00;19.20;99.90
2625;DHT22;1322;53.256;10.386;2022-09-12T20:24:25;19.20;99.90
2625;DHT22;1322;53.256;10.386;2022-09-12T20:26:51;19.20;99.90
2625;DHT22;1322;53.256;10.386;2022-09-12T20:29:17;19.20;99.90
2625;DHT22;1322;53.256;10.386;2022-09-12T20:31:43;19.30;99.90
2625;DHT22;1322;53.256;10.386;2022-09-12T20:34:17;19.30;99.90
2625;DHT22;1322;53.256;10.386;2022-09-12T20:36:43;19.30;99.90
2625;DHT22;1322;53.256;10.386;2022-09-12T20:39:14;19.30;99.90
2625;DHT22;1322;53.256;10.386;2022-09-12T20:41:40;19.30;99.90
2625;DHT22;1322;53.256;10.386;2022-09-12T20:44:06;19.30;99.90
2625;DHT22;1322;53.256;10.386;2022-09-12T20:46:31;19.30;99.90
2625;DHT22;1322;53.256;10.386;2022-09-12T20:48:58;19.20;99.90
2625;DHT22;1322;53.256;10.386;2022-09-12T20:51:24;19.20;99.90
2625;DHT22;1322;53.256;10.386;2022-09-12T20:53:58;19.20;99.90
2625;DHT22;1322;53.256;10.386;2022-09-12T20:56:25;19.20;99.90
2625;DHT22;1322;53.256;10.386;2022-09-12T20:58:53;19.20;99.90
2625;DHT22;1322;53.256;10.386;2022-09-12T21:01:19;19.20;99.90
2625;DHT22;1322;53.256;10.386;2022-09-12T21:03:45;19.10;99.90
2625;DHT22;1322;53.256;10.386;2022-09-12T21:06:12;19.10;99.90
2625;DHT22;1322;53.256;10.386;2022-09-12T21:08:39;19.10;99.90
2625;DHT22;1322;53.256;10.386;2022-09-12T21:11:05;19.10;99.90
2625;DHT22;1322;53.256;10.386;2022-09-12T21:13:31;19.00;99.90
2625;DHT22;1322;53.256;10.386;2022-09-12T21:15:58;19.00;99.90
2625;DHT22;1322;53.256;10.386;2022-09-12T21:18:23;19.00;99.90
2625;DHT22;1322;53.256;10.386;2022-09-12T21:20:53;18.90;99.90
2625;DHT22;1322;53.256;10.386;2022-09-12T21:23:19;18.90;99.90
2625;DHT22;1322;53.256;10.386;2022-09-12T21:25:45;18.90;99.90
2625;DHT22;1322;53.256;10.386;2022-09-12T21:28:11;18.80;99.90
2625;DHT22;1322;53.256;10.386;2022-09-12T21:30:36;18.80;99.90
2625;DHT22;1322;53.256;10.386;2022-09-12T21:33:03;18.70;99.90
2625;DHT22;1322;53.256;10.386;2022-09-12T21:35:30;18.60;99.90
2625;DHT22;1322;53.256;10.386;2022-09-12T21:37:55;18.60;99.90
2625;DHT22;1322;53.256;10.386;2022-09-12T21:40:21;18.50;99.90
2625;DHT22;1322;53.256;10.386;2022-09-12T21:42:48;18.50;99.90
2625;DHT22;1322;53.256;10.386;2022-09-12T21:45:14;18.50;99.90
2625;DHT22;1322;53.256;10.386;2022-09-12T21:47:40;18.40;99.90
2625;DHT22;1322;53.256;10.386;2022-09-12T21:50:06;18.40;99.90
2625;DHT22;1322;53.256;10.386;2022-09-12T21:52:32;18.30;99.90
2625;DHT22;1322;53.256;10.386;2022-09-12T21:55:02;18.30;99.90
2625;DHT22;1322;53.256;10.386;2022-09-12T21:57:32;18.40;99.90
2625;DHT22;1322;53.256;10.386;2022-09-12T21:59:58;18.30;99.90
2625;DHT22;1322;53.256;10.386;2022-09-12T22:02:27;18.30;99.90
2625;DHT22;1322;53.256;10.386;2022-09-12T22:04:56;18.30;99.90
2625;DHT22;1322;53.256;10.386;2022-09-12T22:07:25;18.40;99.90
2625;DHT22;1322;53.256;10.386;2022-09-12T22:09:51;18.40;99.90
2625;DHT22;1322;53.256;10.386;2022-09-12T22:12:17;18.40;99.90
2625;DHT22;1322;53.256;10.386;2022-09-12T22:14:44;18.40;99.90
2625;DHT22;1322;53.256;10.386;2022-09-12T22:17:11;18.30;99.90
2625;DHT22;1322;53.256;10.386;2022-09-12T22:19:38;18.40;99.90
2625;DHT22;1322;53.256;10.386;2022-09-12T22:22:03;18.40;99.90
2625;DHT22;1322;53.256;10.386;2022-09-12T22:24:48;18.40;99.90
2625;DHT22;1322;53.256;10.386;2022-09-12T22:27:13;18.40;99.90
2625;DHT22;1322;53.256;10.386;2022-09-12T22:29:39;18.40;99.90
2625;DHT22;1322;53.256;10.386;2022-09-12T22:32:05;18.40;99.90
2625;DHT22;1322;53.256;10.386;2022-09-12T22:34:30;18.40;99.90
2625;DHT22;1322;53.256;10.386;2022-09-12T22:36:56;18.40;99.90
2625;DHT22;1322;53.256;10.386;2022-09-12T22:39:22;18.40;99.90
2625;DHT22;1322;53.256;10.386;2022-09-12T22:41:48;18.40;99.90
2625;DHT22;1322;53.256;10.386;2022-09-12T22:44:14;18.40;99.90
2625;DHT22;1322;53.256;10.386;2022-09-12T22:46:42;18.40;99.90
2625;DHT22;1322;53.256;10.386;2022-09-12T22:49:08;18.30;99.90
2625;DHT22;1322;53.256;10.386;2022-09-12T22:51:33;18.30;99.90
2625;DHT22;1322;53.256;10.386;2022-09-12T22:53:59;18.20;99.90
2625;DHT22;1322;53.256;10.386;2022-09-12T22:56:26;18.20;99.90
2625;DHT22;1322;53.256;10.386;2022-09-12T22:58:51;18.20;99.90
2625;DHT22;1322;53.256;10.386;2022-09-12T23:01:17;18.20;99.90
2625;DHT22;1322;53.256;10.386;2022-09-12T23:03:43;18.20;99.90
2625;DHT22;1322;53.256;10.386;2022-09-12T23:06:09;18.20;99.90
2625;DHT22;1322;53.256;10.386;2022-09-12T23:08:36;18.10;99.90
2625;DHT22;1322;53.256;10.386;2022-09-12T23:11:03;18.20;99.90
2625;DHT22;1322;53.256;10.386;2022-09-12T23:13:29;18.20;99.90
2625;DHT22;1322;53.256;10.386;2022-09-12T23:15:59;18.10;99.90
2625;DHT22;1322;53.256;10.386;2022-09-12T23:18:26;18.20;99.90
2625;DHT22;1322;53.256;10.386;2022-09-12T23:21:06;18.20;99.90
2625;DHT22;1322;53.256;10.386;2022-09-12T23:23:32;18.20;99.90
2625;DHT22;1322;53.256;10.386;2022-09-12T23:26:03;18.20;99.90
2625;DHT22;1322;53.256;10.386;2022-09-12T23:28:28;18.20;99.90
2625;DHT22;1322;53.256;10.386;2022-09-12T23:30:55;18.30;99.90
2625;DHT22;1322;53.256;10.386;2022-09-12T23:33:21;18.30;99.90
2625;DHT22;1322;53.256;10.386;2022-09-12T23:35:47;18.40;99.90
2625;DHT22;1322;53.256;10.386;2022-09-12T23:38:13;18.40;99.90
2625;DHT22;1322;53.256;10.386;2022-09-12T23:40:39;18.50;99.90
2625;DHT22;1322;53.256;10.386;2022-09-12T23:43:04;18.50;99.90
2625;DHT22;1322;53.256;10.386;2022-09-12T23:45:30;18.50;99.90
2625;DHT22;1322;53.256;10.386;2022-09-12T23:47:56;18.50;99.90
2625;DHT22;1322;53.256;10.386;2022-09-12T23:50:21;18.50;99.90
2625;DHT22;1322;53.256;10.386;2022-09-12T23:52:48;18.60;99.90
2625;DHT22;1322;53.256;10.386;2022-09-12T23:55:13;18.60;99.90
2625;DHT22;1322;53.256;10.386;2022-09-12T23:57:39;18.70;99.90
